Time;durP1;ratioP1;P1;durP2;ratioP2;P2;SDS_P1;SDS_P2;PMS_P1;PMS_P2;Temp;Humidity;BMP_temperature;BMP_pressure;BME280_temperature;BME280_humidity;BME280_pressure;Samples;Min_cycle;Max_cycle;Signal;HPM_P1;HPM_P2
2021/10/20 00:00:34;;;;;;;6.75;3.95;;;10.60;99.90;;;;;;5092367;28;20060;-82
2021/10/20 00:03:00;;;;;;;6.38;4.03;;;10.50;99.90;;;;;;5089901;28;20028;-82
2021/10/20 00:05:26;;;;;;;6.07;3.78;;;10.40;99.90;;;;;;5078901;28;20845;-82
2021/10/20 00:07:52;;;;;;;8.77;4.78;;;10.20;99.90;;;;;;5090754;28;20062;-81
2021/10/20 00:10:20;;;;;;;7.95;4.55;;;10.20;99.90;;;;;;5092482;28;20511;-81
2021/10/20 00:12:49;;;;;;;8.90;4.78;;;10.30;99.90;;;;;;5091796;28;20032;-81
2021/10/20 00:15:17;;;;;;;7.80;4.85;;;10.10;99.90;;;;;;5090441;28;20063;-82
2021/10/20 00:17:43;;;;;;;12.05;5.20;;;10.10;99.90;;;;;;5090621;28;20032;-81
2021/10/20 00:20:13;;;;;;;9.30;5.32;;;10.00;99.90;;;;;;5090815;28;20123;-81
2021/10/20 00:22:41;;;;;;;10.73;5.57;;;10.00;99.90;;;;;;5090931;28;20038;-81
2021/10/20 00:25:08;;;;;;;8.23;4.40;;;9.90;99.90;;;;;;5089387;28;20028;-82
2021/10/20 00:27:33;;;;;;;9.10;4.47;;;9.80;99.90;;;;;;5088223;28;20024;-82
2021/10/20 00:29:59;;;;;;;8.25;4.63;;;9.70;99.90;;;;;;5091689;28;20031;-81
2021/10/20 00:32:25;;;;;;;7.28;3.20;;;9.70;99.90;;;;;;5073762;28;20122;-82
2021/10/20 00:34:51;;;;;;;7.93;4.22;;;9.60;99.90;;;;;;5090265;28;20073;-82
2021/10/20 00:37:17;;;;;;;8.65;4.53;;;9.70;99.90;;;;;;5089543;28;20496;-82
2021/10/20 00:39:43;;;;;;;12.88;5.60;;;9.80;99.90;;;;;;5072749;28;20394;-82
2021/10/20 00:42:09;;;;;;;6.80;4.55;;;9.80;99.90;;;;;;5090476;28;20182;-81
2021/10/20 00:44:55;;;;;;;9.45;4.18;;;9.80;99.90;;;;;;5091117;28;20517;-81
2021/10/20 00:47:22;;;;;;;7.88;4.57;;;9.70;99.90;;;;;;5082646;28;20028;-82
2021/10/20 00:49:48;;;;;;;6.32;3.83;;;9.80;99.90;;;;;;5090067;28;20027;-81
2021/10/20 00:52:16;;;;;;;7.85;4.10;;;9.70;99.90;;;;;;5072694;28;20040;-81
2021/10/20 00:54:42;;;;;;;8.30;4.15;;;9.60;99.90;;;;;;5089494;28;20016;-80
2021/10/20 00:57:09;;;;;;;7.85;4.10;;;9.60;99.90;;;;;;5086756;28;20509;-80
2021/10/20 00:59:37;;;;;;;4.90;3.00;;;9.60;99.90;;;;;;5072817;28;20090;-81
2021/10/20 01:02:03;;;;;;;6.85;3.20;;;9.60;99.90;;;;;;5089844;28;20548;-81
2021/10/20 01:04:30;;;;;;;6.47;4.03;;;9.60;99.90;;;;;;5090034;28;20077;-82
2021/10/20 01:06:56;;;;;;;13.27;4.68;;;9.60;99.90;;;;;;5090928;28;20497;-82
2021/10/20 01:09:23;;;;;;;7.60;4.20;;;9.50;99.90;;;;;;5091040;28;20055;-81
2021/10/20 01:11:49;;;;;;;9.55;4.55;;;9.50;99.90;;;;;;5091814;28;20031;-81
2021/10/20 01:14:15;;;;;;;9.77;4.25;;;9.40;99.90;;;;;;5087997;28;20107;-81
2021/10/20 01:16:41;;;;;;;6.65;3.97;;;9.50;99.90;;;;;;5081797;28;20119;-81
2021/10/20 01:19:08;;;;;;;7.10;3.85;;;9.50;99.90;;;;;;5088273;28;20036;-82
2021/10/20 01:21:34;;;;;;;6.43;3.75;;;9.40;99.90;;;;;;5089453;28;20028;-81
2021/10/20 01:24:00;;;;;;;7.88;3.78;;;9.30;99.90;;;;;;5090929;28;20111;-81
2021/10/20 01:26:27;;;;;;;8.20;4.50;;;9.30;99.90;;;;;;5090155;28;20081;-82
2021/10/20 01:28:53;;;;;;;9.05;4.68;;;9.20;99.90;;;;;;5088937;28;20028;-82
2021/10/20 01:31:19;;;;;;;7.78;3.65;;;9.30;99.90;;;;;;5089567;28;20024;-82
2021/10/20 01:33:45;;;;;;;10.10;4.30;;;9.30;99.90;;;;;;5087953;28;20028;-82
2021/10/20 01:36:12;;;;;;;9.00;4.03;;;9.30;99.90;;;;;;5088805;28;20096;-81
2021/10/20 01:38:38;;;;;;;6.57;3.97;;;9.20;99.90;;;;;;5088391;28;20639;-82
2021/10/20 01:41:04;;;;;;;9.73;3.95;;;9.20;99.90;;;;;;5089365;28;20060;-82
2021/10/20 01:43:40;;;;;;;6.20;3.80;;;9.20;99.90;;;;;;5071799;28;20516;-82
2021/10/20 01:46:06;;;;;;;6.15;3.58;;;9.10;99.90;;;;;;5089322;28;20539;-81
2021/10/20 01:48:32;;;;;;;8.05;4.30;;;9.10;99.90;;;;;;5088335;28;20036;-81
2021/10/20 01:50:58;;;;;;;7.72;3.95;;;9.10;99.90;;;;;;5087590;28;20385;-82
2021/10/20 01:53:23;;;;;;;7.30;3.88;;;9.00;99.90;;;;;;5089702;28;20032;-81
2021/10/20 01:55:49;;;;;;;6.88;3.67;;;9.00;99.90;;;;;;5088873;28;20099;-81
2021/10/20 01:58:15;;;;;;;6.95;3.95;;;9.10;99.90;;;;;;5089104;28;20040;-82
2021/10/20 02:00:41;;;;;;;6.00;3.50;;;9.00;99.90;;;;;;5090182;28;20762;-81
2021/10/20 02:03:06;;;;;;;7.63;3.45;;;9.00;99.90;;;;;;5086678;28;20071;-81
2021/10/20 02:05:32;;;;;;;7.05;4.25;;;9.00;99.90;;;;;;5090167;28;20474;-81
2021/10/20 02:07:58;;;;;;;7.55;4.10;;;8.90;99.90;;;;;;5070165;28;20028;-81
2021/10/20 02:10:24;;;;;;;6.93;3.97;;;9.10;99.90;;;;;;5088866;28;20402;-82
2021/10/20 02:12:49;;;;;;;8.40;4.38;;;9.10;99.90;;;;;;5088860;28;20028;-81
2021/10/20 02:15:15;;;;;;;8.13;4.75;;;9.20;99.90;;;;;;5090544;28;20043;-82
2021/10/20 02:17:41;;;;;;;7.85;4.53;;;9.30;99.90;;;;;;5088747;28;20452;-83
2021/10/20 02:20:12;;;;;;;8.35;4.60;;;9.50;99.90;;;;;;5089228;28;20032;-83
2021/10/20 02:22:40;;;;;;;7.53;4.35;;;9.40;99.90;;;;;;5086612;28;20021;-82
2021/10/20 02:25:06;;;;;;;9.55;4.75;;;9.30;99.90;;;;;;5090167;28;20028;-81
2021/10/20 02:27:32;;;;;;;8.65;5.30;;;9.30;99.90;;;;;;5074296;28;20024;-85
2021/10/20 02:29:58;;;;;;;8.27;4.28;;;9.30;99.90;;;;;;5089770;28;20419;-81
2021/10/20 02:32:24;;;;;;;11.18;5.47;;;9.30;99.90;;;;;;5089459;28;20043;-81
2021/10/20 02:34:49;;;;;;;10.40;4.97;;;9.20;99.90;;;;;;5070462;28;20032;-81
2021/10/20 02:37:15;;;;;;;12.23;5.13;;;9.30;99.90;;;;;;5088661;28;20058;-81
2021/10/20 02:39:41;;;;;;;9.68;4.78;;;9.20;99.90;;;;;;5089248;28;20394;-81
2021/10/20 02:42:07;;;;;;;12.05;5.47;;;9.20;99.90;;;;;;5089917;28;20028;-82
2021/10/20 02:44:32;;;;;;;7.97;5.05;;;9.10;99.90;;;;;;5089159;28;20475;-81
2021/10/20 02:46:58;;;;;;;12.82;4.80;;;9.10;99.90;;;;;;5070061;28;20056;-82
2021/10/20 02:49:24;;;;;;;9.80;4.70;;;9.00;99.90;;;;;;5088654;28;20040;-81
2021/10/20 02:51:50;;;;;;;7.88;4.75;;;9.00;99.90;;;;;;5089318;28;20024;-82
2021/10/20 02:54:16;;;;;;;7.40;3.92;;;9.00;99.90;;;;;;5068410;28;20627;-82
2021/10/20 02:56:41;;;;;;;9.60;4.35;;;8.90;99.90;;;;;;5087653;28;20031;-82
2021/10/20 02:59:07;;;;;;;6.13;3.70;;;8.90;99.90;;;;;;5088511;28;20632;-81
2021/10/20 03:01:33;;;;;;;6.70;4.20;;;9.00;99.90;;;;;;5090286;28;20013;-80
2021/10/20 03:03:58;;;;;;;6.07;3.55;;;9.00;99.90;;;;;;5067060;28;20465;-80
2021/10/20 03:06:24;;;;;;;8.05;4.00;;;8.90;99.90;;;;;;5065939;28;20024;-82
2021/10/20 03:08:50;;;;;;;6.95;3.53;;;8.90;99.90;;;;;;5086357;28;20020;-80
2021/10/20 03:11:16;;;;;;;6.18;3.55;;;8.90;99.90;;;;;;5087426;28;20047;-83
2021/10/20 03:13:41;;;;;;;8.20;4.15;;;8.70;99.90;;;;;;5089159;28;20034;-80
2021/10/20 03:16:07;;;;;;;8.98;4.10;;;8.70;99.90;;;;;;5078891;28;20056;-81
2021/10/20 03:18:34;;;;;;;10.65;4.45;;;8.90;99.90;;;;;;5087880;28;20394;-80
2021/10/20 03:20:59;;;;;;;9.73;4.35;;;8.80;99.90;;;;;;5086808;28;20654;-85
2021/10/20 03:23:25;;;;;;;6.38;3.58;;;8.90;99.90;;;;;;5089390;28;20028;-80
2021/10/20 03:25:51;;;;;;;8.07;4.45;;;8.80;99.90;;;;;;5087344;28;20040;-79
2021/10/20 03:28:17;;;;;;;7.00;3.63;;;8.70;99.90;;;;;;5089507;28;20875;-80
2021/10/20 03:30:43;;;;;;;8.13;3.60;;;8.80;99.90;;;;;;5089589;28;20032;-81
2021/10/20 03:33:09;;;;;;;8.00;4.30;;;8.70;99.90;;;;;;5091116;28;20086;-82
2021/10/20 03:35:34;;;;;;;9.25;4.65;;;8.70;99.90;;;;;;5088079;28;20036;-81
2021/10/20 03:38:00;;;;;;;7.50;4.72;;;8.80;99.90;;;;;;5084345;28;20028;-81
2021/10/20 03:40:26;;;;;;;9.32;4.35;;;8.80;99.90;;;;;;5086673;28;20119;-82
2021/10/20 03:42:52;;;;;;;8.13;4.82;;;8.80;99.90;;;;;;5088187;28;20058;-80
2021/10/20 03:45:18;;;;;;;8.35;4.90;;;8.70;99.90;;;;;;5071879;28;20036;-81
2021/10/20 03:47:44;;;;;;;7.95;4.72;;;8.50;99.90;;;;;;5087195;28;20036;-82
2021/10/20 03:50:10;;;;;;;11.60;5.35;;;8.30;99.90;;;;;;5089145;28;20115;-80
2021/10/20 03:52:36;;;;;;;8.60;4.80;;;8.30;99.90;;;;;;5089764;28;20103;-80
2021/10/20 03:55:04;;;;;;;10.70;4.95;;;8.30;99.90;;;;;;5070665;28;20150;-81
2021/10/20 03:57:37;;;;;;;12.90;4.47;;;8.40;99.90;;;;;;5086286;28;20604;-82
2021/10/20 04:00:10;;;;;;;8.43;4.35;;;8.60;99.90;;;;;;5086902;28;20119;-81
2021/10/20 04:02:35;;;;;;;9.02;4.70;;;8.50;99.90;;;;;;5067601;28;20032;-81
2021/10/20 04:05:01;;;;;;;7.40;3.88;;;8.60;99.90;;;;;;5085686;28;20098;-81
2021/10/20 04:07:27;;;;;;;9.63;4.57;;;8.70;99.90;;;;;;5087433;28;20413;-83
2021/10/20 04:09:53;;;;;;;9.07;3.85;;;8.80;99.90;;;;;;5086401;28;20044;-81
2021/10/20 04:12:19;;;;;;;7.85;4.40;;;8.70;99.90;;;;;;5085407;28;20028;-80
2021/10/20 04:14:45;;;;;;;10.30;4.85;;;8.60;99.90;;;;;;5068614;28;20093;-82
2021/10/20 04:17:11;;;;;;;7.78;4.50;;;8.70;99.90;;;;;;5086466;28;20122;-82
2021/10/20 04:19:36;;;;;;;9.55;5.00;;;8.70;99.90;;;;;;5083756;28;20109;-81
2021/10/20 04:22:02;;;;;;;10.13;5.28;;;8.80;99.90;;;;;;5082890;28;20024;-80
2021/10/20 04:24:28;;;;;;;8.68;4.57;;;8.80;99.90;;;;;;5086331;28;20551;-82
2021/10/20 04:26:54;;;;;;;7.55;4.15;;;8.70;99.90;;;;;;5067578;28;20056;-81
2021/10/20 04:29:20;;;;;;;8.48;4.43;;;8.60;99.90;;;;;;5084908;28;20028;-83
2021/10/20 04:31:45;;;;;;;8.18;4.28;;;8.60;99.90;;;;;;5082294;28;20370;-82
2021/10/20 04:34:11;;;;;;;7.97;4.20;;;8.50;99.90;;;;;;5086590;28;20090;-81
2021/10/20 04:36:37;;;;;;;8.68;4.13;;;8.50;99.90;;;;;;5086140;28;20038;-80
2021/10/20 04:39:03;;;;;;;6.70;4.57;;;8.40;99.90;;;;;;5085835;28;20028;-81
2021/10/20 04:41:29;;;;;;;8.10;4.65;;;8.50;99.90;;;;;;5085380;28;20043;-80
2021/10/20 04:43:54;;;;;;;7.82;4.47;;;8.60;99.90;;;;;;5085928;28;20039;-81
2021/10/20 04:46:21;;;;;;;9.73;4.57;;;8.60;99.90;;;;;;5084581;28;20074;-81
2021/10/20 04:48:46;;;;;;;7.15;3.92;;;8.60;99.90;;;;;;5072275;28;20067;-84
2021/10/20 04:51:12;;;;;;;9.35;4.10;;;8.60;99.90;;;;;;5084687;28;20294;-80
2021/10/20 04:53:38;;;;;;;8.95;5.70;;;8.60;99.90;;;;;;5083660;28;20418;-81
2021/10/20 04:56:05;;;;;;;8.95;4.88;;;8.70;99.90;;;;;;5085975;28;20036;-80
2021/10/20 04:58:30;;;;;;;8.52;4.38;;;8.60;99.90;;;;;;5085003;28;20390;-81
2021/10/20 05:00:56;;;;;;;9.30;5.22;;;8.50;99.90;;;;;;5087038;28;20020;-81
2021/10/20 05:03:22;;;;;;;10.15;5.18;;;8.50;99.90;;;;;;5086473;28;20032;-80
2021/10/20 05:05:47;;;;;;;9.23;4.72;;;8.50;99.90;;;;;;5085830;28;20042;-81
2021/10/20 05:08:13;;;;;;;7.25;4.13;;;8.20;99.90;;;;;;5086122;28;20030;-82
2021/10/20 05:10:39;;;;;;;6.75;4.03;;;8.00;99.90;;;;;;5086644;28;20630;-80
2021/10/20 05:13:05;;;;;;;8.60;5.10;;;8.00;99.90;;;;;;5085826;28;20040;-80
2021/10/20 05:15:31;;;;;;;8.00;4.03;;;8.10;99.90;;;;;;5084478;28;20039;-81
2021/10/20 05:17:56;;;;;;;9.52;4.75;;;8.10;99.90;;;;;;5085617;28;20034;-80
2021/10/20 05:20:22;;;;;;;9.07;5.03;;;8.10;99.90;;;;;;5087018;28;20736;-80
2021/10/20 05:22:48;;;;;;;8.18;4.30;;;8.00;99.90;;;;;;5085134;28;20081;-80
2021/10/20 05:25:16;;;;;;;8.48;4.85;;;8.00;99.90;;;;;;5085654;28;20482;-82
2021/10/20 05:27:42;;;;;;;9.73;4.57;;;8.10;99.90;;;;;;5082550;28;20119;-81
2021/10/20 05:30:09;;;;;;;8.00;4.70;;;8.20;99.90;;;;;;5088323;28;20075;-83
2021/10/20 05:32:35;;;;;;;9.63;4.93;;;8.20;99.90;;;;;;5087726;28;20302;-82
2021/10/20 05:35:00;;;;;;;12.05;4.82;;;8.20;99.90;;;;;;5085382;28;20088;-81
2021/10/20 05:37:26;;;;;;;7.85;4.57;;;8.20;99.90;;;;;;5083682;28;20028;-84
2021/10/20 05:39:53;;;;;;;7.40;4.60;;;8.20;99.90;;;;;;5083380;28;20106;-76
2021/10/20 05:42:20;;;;;;;8.48;4.82;;;8.20;99.90;;;;;;5084124;28;20036;-81
2021/10/20 05:44:46;;;;;;;11.23;5.75;;;8.10;99.90;;;;;;5084189;28;20054;-80
2021/10/20 05:47:13;;;;;;;11.68;6.05;;;8.10;99.90;;;;;;5081822;28;20115;-80
2021/10/20 05:49:39;;;;;;;8.13;5.07;;;8.20;99.90;;;;;;5084159;28;20027;-80
2021/10/20 05:52:06;;;;;;;8.82;5.35;;;8.20;99.90;;;;;;5081799;28;20051;-80
2021/10/20 05:54:32;;;;;;;8.82;4.95;;;8.20;99.90;;;;;;5084596;28;20040;-81
2021/10/20 05:56:58;;;;;;;11.85;5.68;;;8.20;99.90;;;;;;5083176;28;20057;-81
2021/10/20 05:59:25;;;;;;;9.93;5.45;;;8.20;99.90;;;;;;5082257;28;20054;-81
2021/10/20 06:01:51;;;;;;;8.20;4.45;;;8.10;99.90;;;;;;5082359;28;20060;-81
2021/10/20 06:04:18;;;;;;;9.73;5.05;;;8.20;99.90;;;;;;5082253;28;20086;-81
2021/10/20 06:06:44;;;;;;;7.80;4.55;;;8.20;99.90;;;;;;5083437;28;20039;-81
2021/10/20 06:09:10;;;;;;;8.55;4.72;;;8.20;99.90;;;;;;5081198;28;20039;-81
2021/10/20 06:11:36;;;;;;;7.60;4.65;;;8.20;99.90;;;;;;5084383;28;20036;-80
2021/10/20 06:14:02;;;;;;;10.32;4.25;;;8.30;99.90;;;;;;5080987;28;20056;-81
2021/10/20 06:16:28;;;;;;;7.18;4.43;;;8.30;99.90;;;;;;5084658;28;20439;-81
2021/10/20 06:18:53;;;;;;;8.50;4.68;;;8.30;99.90;;;;;;5082389;28;20032;-81
2021/10/20 06:21:19;;;;;;;10.27;5.38;;;8.30;99.90;;;;;;5083232;28;20031;-81
2021/10/20 06:23:45;;;;;;;10.50;5.38;;;8.30;99.90;;;;;;5082509;28;20032;-82
2021/10/20 06:26:11;;;;;;;7.63;4.45;;;8.20;99.90;;;;;;5084675;28;20028;-81
2021/10/20 06:28:37;;;;;;;9.75;4.93;;;8.20;99.90;;;;;;5084787;28;20032;-81
2021/10/20 06:31:03;;;;;;;10.20;5.18;;;8.20;99.90;;;;;;5085169;28;20016;-80
2021/10/20 06:33:29;;;;;;;7.85;3.70;;;8.20;99.90;;;;;;5084246;28;20131;-81
2021/10/20 06:35:55;;;;;;;7.38;3.90;;;8.20;99.90;;;;;;5083059;28;20028;-78
2021/10/20 06:38:21;;;;;;;7.55;4.28;;;8.20;99.90;;;;;;5081596;28;20101;-78
2021/10/20 06:40:48;;;;;;;7.13;3.88;;;8.40;99.90;;;;;;5082942;28;20055;-78
2021/10/20 06:43:14;;;;;;;8.50;4.00;;;8.40;99.90;;;;;;5085329;28;20379;-80
2021/10/20 06:45:40;;;;;;;7.82;4.68;;;8.50;99.90;;;;;;5085902;28;20027;-78
2021/10/20 06:48:07;;;;;;;6.90;4.63;;;8.40;99.90;;;;;;5086100;28;20059;-79
2021/10/20 06:50:34;;;;;;;7.55;4.53;;;8.30;99.90;;;;;;5085588;28;20032;-79
2021/10/20 06:52:59;;;;;;;6.82;4.47;;;8.30;99.90;;;;;;5086120;28;20024;-79
2021/10/20 06:55:26;;;;;;;8.05;4.60;;;8.20;99.90;;;;;;5086550;28;20034;-79
2021/10/20 06:57:51;;;;;;;9.55;4.30;;;8.20;99.90;;;;;;5085092;28;20020;-80
2021/10/20 07:00:17;;;;;;;11.73;5.28;;;8.30;99.90;;;;;;5083910;28;20663;-80
2021/10/20 07:02:43;;;;;;;7.25;4.80;;;8.30;99.90;;;;;;5087884;28;20081;-79
2021/10/20 07:05:09;;;;;;;9.15;5.03;;;8.20;99.90;;;;;;5086540;28;20520;-80
2021/10/20 07:07:35;;;;;;;7.50;4.38;;;8.30;99.90;;;;;;5086325;28;20042;-80
2021/10/20 07:10:01;;;;;;;9.88;4.57;;;8.30;99.90;;;;;;5085292;28;20059;-80
2021/10/20 07:12:30;;;;;;;9.13;4.65;;;8.30;99.90;;;;;;5085346;28;20024;-80
2021/10/20 07:14:58;;;;;;;10.10;4.55;;;8.40;99.90;;;;;;5086260;28;20035;-81
2021/10/20 07:17:24;;;;;;;9.30;5.15;;;8.30;99.90;;;;;;5086542;28;20086;-81
2021/10/20 07:19:50;;;;;;;9.75;5.55;;;8.40;99.90;;;;;;5080784;28;20040;-81
2021/10/20 07:22:24;;;;;;;7.90;4.38;;;8.40;99.90;;;;;;5083189;28;20050;-80
2021/10/20 07:24:56;;;;;;;6.93;4.43;;;8.60;99.90;;;;;;5083221;28;20028;-80
2021/10/20 07:27:31;;;;;;;9.90;4.95;;;8.60;99.90;;;;;;5074501;28;20066;-80
2021/10/20 07:29:57;;;;;;;11.15;4.95;;;8.60;99.90;;;;;;5086217;28;20032;-81
2021/10/20 07:32:28;;;;;;;7.82;4.40;;;8.60;99.90;;;;;;5087079;28;20028;-80
2021/10/20 07:35:16;;;;;;;9.77;4.60;;;8.70;99.90;;;;;;5082791;28;20020;-81
2021/10/20 07:37:46;;;;;;;8.80;4.80;;;8.70;99.90;;;;;;5067640;28;20082;-80
2021/10/20 07:40:21;;;;;;;7.03;4.00;;;8.70;99.90;;;;;;5082240;28;20049;-81
2021/10/20 07:42:54;;;;;;;18.27;6.22;;;8.70;99.90;;;;;;5087245;28;20027;-80
2021/10/20 07:45:28;;;;;;;8.10;4.67;;;8.80;99.90;;;;;;5084664;28;20028;-81
2021/10/20 07:48:03;;;;;;;14.18;4.90;;;8.90;99.90;;;;;;5083202;28;20162;-81
2021/10/20 07:50:39;;;;;;;9.30;5.40;;;9.00;99.90;;;;;;5085284;28;20035;-81
2021/10/20 07:53:16;;;;;;;7.32;4.40;;;8.90;99.90;;;;;;5081937;28;20039;-80
2021/10/20 07:55:44;;;;;;;7.15;4.63;;;8.90;99.90;;;;;;5083605;28;20438;-80
2021/10/20 07:58:19;;;;;;;7.43;4.88;;;9.00;99.90;;;;;;5082046;28;20481;-80
2021/10/20 08:00:44;;;;;;;9.70;5.75;;;9.00;99.90;;;;;;5081907;28;20077;-81
2021/10/20 08:03:10;;;;;;;8.65;4.05;;;9.10;99.90;;;;;;5086062;28;20028;-80
2021/10/20 08:05:36;;;;;;;10.00;5.45;;;9.10;99.90;;;;;;5083398;28;20024;-80
2021/10/20 08:08:02;;;;;;;10.00;5.65;;;9.20;99.90;;;;;;5083920;28;20028;-80
2021/10/20 08:10:30;;;;;;;52.35;27.92;;;9.10;99.90;;;;;;5085147;28;20448;-82
2021/10/20 08:12:57;;;;;;;57.72;29.02;;;9.40;99.90;;;;;;5085574;28;20020;-81
2021/10/20 08:15:25;;;;;;;44.97;27.00;;;9.40;99.90;;;;;;5067864;28;20028;-80
2021/10/20 08:17:51;;;;;;;33.78;20.10;;;9.50;99.90;;;;;;5079628;28;20035;-80
2021/10/20 08:20:20;;;;;;;19.13;12.05;;;9.40;99.90;;;;;;5067025;28;20029;-80
2021/10/20 08:22:46;;;;;;;27.58;15.82;;;9.50;99.90;;;;;;5067354;28;20055;-81
2021/10/20 08:25:14;;;;;;;86.28;39.20;;;9.60;99.90;;;;;;5086157;28;20028;-81
2021/10/20 08:27:40;;;;;;;34.38;17.88;;;9.60;99.90;;;;;;5083042;28;20028;-80
2021/10/20 08:30:14;;;;;;;15.75;8.10;;;9.70;99.90;;;;;;5076226;28;20029;-80
2021/10/20 08:32:40;;;;;;;;;;;9.80;99.90;;;;;;5066911;28;20024;-81
2021/10/20 08:35:07;;;;;;;12.80;7.63;;;9.80;99.90;;;;;;5074773;28;19908;-81
2021/10/20 08:37:33;;;;;;;31.30;8.23;;;9.80;99.90;;;;;;5076393;28;20118;-81
2021/10/20 08:39:58;;;;;;;28.90;10.25;;;9.80;99.90;;;;;;5084615;28;20675;-81
2021/10/20 08:42:24;;;;;;;12.02;7.30;;;9.80;99.90;;;;;;5084619;28;20028;-81
2021/10/20 08:44:50;;;;;;;9.93;6.18;;;9.90;99.90;;;;;;5084392;28;20044;-80
2021/10/20 08:47:17;;;;;;;9.50;5.65;;;9.90;99.90;;;;;;5084660;28;20028;-81
2021/10/20 08:49:44;;;;;;;16.83;8.07;;;9.90;99.90;;;;;;5084698;28;20024;-81
2021/10/20 08:52:10;;;;;;;14.77;7.43;;;10.00;99.90;;;;;;5082173;28;20020;-80
2021/10/20 08:54:36;;;;;;;15.02;6.28;;;10.10;99.90;;;;;;5083398;28;20027;-80
2021/10/20 08:57:04;;;;;;;13.15;8.00;;;10.10;99.90;;;;;;5083444;28;20035;-80
2021/10/20 08:59:32;;;;;;;10.10;5.72;;;10.20;99.90;;;;;;5085381;28;20059;-80
2021/10/20 09:02:03;;;;;;;70.43;39.63;;;10.20;99.90;;;;;;5086106;28;20077;-81
2021/10/20 09:04:30;;;;;;;54.38;32.25;;;10.20;99.90;;;;;;5085051;28;20106;-80
2021/10/20 09:07:00;;;;;;;16.00;8.77;;;10.30;99.90;;;;;;5083912;28;20051;-81
2021/10/20 09:09:32;;;;;;;13.80;6.53;;;10.30;99.90;;;;;;5086046;28;20941;-80
2021/10/20 09:11:57;;;;;;;10.50;6.07;;;10.30;99.90;;;;;;5084545;28;20075;-80
2021/10/20 09:14:23;;;;;;;15.55;8.68;;;10.40;99.90;;;;;;5085509;28;20032;-82
2021/10/20 09:16:49;;;;;;;11.40;6.53;;;10.40;99.90;;;;;;5083986;28;20028;-80
2021/10/20 09:19:17;;;;;;;25.83;13.93;;;10.40;99.90;;;;;;5084260;28;20405;-81
2021/10/20 09:21:51;;;;;;;27.67;16.52;;;10.60;99.90;;;;;;5080264;28;20440;-81
2021/10/20 09:24:16;;;;;;;20.10;13.07;;;10.70;99.90;;;;;;5081790;28;20043;-81
2021/10/20 09:26:42;;;;;;;19.33;11.90;;;10.70;99.90;;;;;;5083116;28;20025;-81
2021/10/20 09:29:22;;;;;;;12.13;7.47;;;10.80;99.90;;;;;;5085458;28;20036;-82
2021/10/20 09:31:48;;;;;;;9.55;5.93;;;10.80;99.90;;;;;;5086186;28;20024;-80
2021/10/20 09:34:15;;;;;;;10.95;6.57;;;10.80;99.90;;;;;;5088986;28;20031;-81
2021/10/20 09:36:41;;;;;;;15.63;8.70;;;11.00;99.90;;;;;;5088157;28;20379;-81
2021/10/20 09:39:12;;;;;;;16.92;7.22;;;11.10;99.90;;;;;;5086391;28;20114;-81
2021/10/20 09:41:39;;;;;;;11.27;5.78;;;11.20;99.90;;;;;;5086802;28;20035;-81
2021/10/20 09:44:09;;;;;;;13.27;6.30;;;11.40;99.90;;;;;;5084414;28;20519;-81
2021/10/20 09:46:43;;;;;;;18.13;10.40;;;11.50;99.90;;;;;;5083595;28;20028;-81
2021/10/20 09:49:19;;;;;;;;;;;11.50;99.90;;;;;;5085581;28;20339;-81
2021/10/20 09:51:46;;;;;;;10.88;5.53;;;11.70;99.90;;;;;;5086625;28;19908;-81
2021/10/20 09:54:27;;;;;;;10.20;5.45;;;11.60;99.90;;;;;;5085622;28;20036;-81
2021/10/20 09:57:01;;;;;;;10.15;5.78;;;11.70;99.90;;;;;;5086220;28;20370;-81
2021/10/20 09:59:28;;;;;;;8.05;4.40;;;11.90;99.90;;;;;;5083934;28;20087;-81
2021/10/20 10:01:54;;;;;;;12.43;6.95;;;11.90;99.90;;;;;;5085613;28;20036;-80
2021/10/20 10:04:21;;;;;;;9.90;5.53;;;11.90;99.90;;;;;;5081006;28;20032;-81
2021/10/20 10:06:48;;;;;;;17.98;5.43;;;12.00;99.90;;;;;;5076056;28;20462;-80
2021/10/20 10:09:14;;;;;;;8.77;4.22;;;12.00;99.90;;;;;;5084819;28;20020;-80
2021/10/20 10:12:12;;;;;;;9.07;5.07;;;11.90;99.90;;;;;;5086661;28;20024;-80
2021/10/20 10:14:42;;;;;;;9.40;5.15;;;12.00;99.90;;;;;;5086512;28;20028;-81
2021/10/20 10:17:09;;;;;;;8.85;4.78;;;12.10;99.90;;;;;;5088104;28;20078;-80
2021/10/20 10:19:39;;;;;;;8.55;4.68;;;12.40;99.90;;;;;;5089300;28;20036;-80
2021/10/20 10:22:26;;;;;;;12.02;6.05;;;12.30;99.90;;;;;;5088879;28;20028;-80
2021/10/20 10:24:53;;;;;;;7.18;4.85;;;12.30;99.90;;;;;;5086646;28;20038;-81
2021/10/20 10:27:20;;;;;;;11.30;5.40;;;12.50;99.90;;;;;;5089830;28;20739;-81
2021/10/20 10:29:54;;;;;;;13.05;4.82;;;12.60;99.90;;;;;;5089941;28;20055;-80
2021/10/20 10:32:22;;;;;;;8.07;5.00;;;12.60;99.90;;;;;;5074194;28;20466;-81
2021/10/20 10:34:49;;;;;;;8.75;5.18;;;12.80;99.90;;;;;;5088367;28;20378;-81
2021/10/20 10:37:43;;;;;;;10.23;5.85;;;12.70;99.90;;;;;;5090181;28;20020;-80
2021/10/20 10:40:19;;;;;;;12.27;5.55;;;12.90;99.90;;;;;;5087698;28;20059;-80
2021/10/20 10:42:47;;;;;;;7.40;5.18;;;13.30;99.90;;;;;;5090195;28;20032;-82
2021/10/20 10:45:18;;;;;;;8.02;5.22;;;13.40;99.90;;;;;;5088492;28;20736;-79
2021/10/20 10:47:56;;;;;;;7.53;4.75;;;13.50;99.90;;;;;;5088331;28;20047;-81
2021/10/20 10:50:45;;;;;;;8.80;5.22;;;13.60;99.90;;;;;;5089298;28;20081;-81
2021/10/20 10:53:47;;;;;;;10.07;4.97;;;13.60;99.90;;;;;;5088356;28;20559;-81
2021/10/20 10:56:14;;;;;;;7.13;4.72;;;13.80;99.90;;;;;;5087896;28;20619;-80
2021/10/20 10:59:05;;;;;;;11.40;4.93;;;13.50;99.80;;;;;;5089714;28;20040;-81
2021/10/20 11:01:43;;;;;;;7.72;4.85;;;13.60;99.90;;;;;;5088880;28;20051;-80
2021/10/20 11:04:22;;;;;;;8.80;5.22;;;13.60;99.60;;;;;;5089334;28;20050;-81
2021/10/20 11:06:50;;;;;;;9.43;6.10;;;13.70;99.50;;;;;;5087385;28;20077;-80
2021/10/20 11:09:17;;;;;;;10.25;5.65;;;13.70;99.60;;;;;;5088235;28;20036;-80
2021/10/20 11:11:50;;;;;;;9.30;6.13;;;13.90;99.80;;;;;;5088097;28;20039;-80
2021/10/20 11:14:19;;;;;;;9.75;5.82;;;14.00;99.70;;;;;;5087578;28;20052;-81
2021/10/20 11:16:57;;;;;;;11.02;6.13;;;13.90;99.60;;;;;;5087096;28;20065;-80
2021/10/20 11:19:23;;;;;;;10.93;6.00;;;14.10;99.80;;;;;;5087430;28;20123;-81
2021/10/20 11:21:50;;;;;;;10.68;7.50;;;14.10;99.40;;;;;;5086567;28;20391;-80
2021/10/20 11:24:16;;;;;;;10.05;7.25;;;14.20;99.00;;;;;;5088160;28;20024;-79
2021/10/20 11:26:46;;;;;;;11.73;7.82;;;14.40;99.20;;;;;;5086978;28;20024;-80
2021/10/20 11:29:13;;;;;;;11.30;7.35;;;14.70;99.50;;;;;;5086309;28;20047;-80
2021/10/20 11:31:49;;;;;;;14.18;8.30;;;14.70;98.70;;;;;;5086747;28;20036;-79
2021/10/20 11:34:20;;;;;;;11.23;7.70;;;14.70;98.90;;;;;;5080626;28;20051;-80
2021/10/20 11:36:46;;;;;;;13.90;7.90;;;14.80;99.30;;;;;;5086229;28;20033;-80
2021/10/20 11:39:13;;;;;;;12.95;7.60;;;14.80;99.50;;;;;;5086458;28;20040;-80
2021/10/20 11:41:53;;;;;;;15.05;8.43;;;15.00;99.70;;;;;;5068414;28;20041;-81
2021/10/20 11:44:36;;;;;;;19.15;9.85;;;14.90;98.80;;;;;;5080606;28;20381;-81
2021/10/20 11:47:04;;;;;;;16.02;9.43;;;15.10;98.90;;;;;;5087638;28;20106;-80
2021/10/20 11:49:31;;;;;;;14.70;9.02;;;15.20;99.20;;;;;;5087816;28;20032;-80
2021/10/20 11:51:56;;;;;;;20.70;11.10;;;15.10;98.70;;;;;;5086773;28;20077;-80
2021/10/20 11:54:25;;;;;;;15.82;9.98;;;15.20;98.80;;;;;;5087902;28;20099;-80
2021/10/20 11:56:58;;;;;;;12.13;8.95;;;15.30;99.10;;;;;;5086628;28;20016;-80
2021/10/20 11:59:29;;;;;;;17.02;10.93;;;15.40;99.00;;;;;;5085025;28;20055;-80
2021/10/20 12:01:55;;;;;;;16.58;11.02;;;15.70;98.90;;;;;;5087733;28;20105;-81
2021/10/20 12:04:23;;;;;;;18.80;11.90;;;15.80;98.80;;;;;;5087036;28;20409;-81
2021/10/20 12:06:55;;;;;;;16.33;9.82;;;16.00;98.50;;;;;;5086940;28;20066;-80
2021/10/20 12:09:23;;;;;;;15.90;10.80;;;16.10;98.20;;;;;;5045160;28;1198647;-80
2021/10/20 12:11:50;;;;;;;17.50;12.00;;;16.10;98.40;;;;;;5086843;28;20043;-80
2021/10/20 12:14:17;;;;;;;18.90;12.73;;;16.10;98.60;;;;;;5088649;28;20024;-80
2021/10/20 12:16:44;;;;;;;16.98;11.55;;;15.90;98.60;;;;;;5089559;28;20047;-80
2021/10/20 12:19:10;;;;;;;21.55;12.10;;;15.90;98.60;;;;;;5086184;28;20497;-81
2021/10/20 12:21:40;;;;;;;16.25;11.82;;;16.10;98.30;;;;;;5089827;28;20458;-80
2021/10/20 12:24:06;;;;;;;15.95;10.65;;;16.40;98.70;;;;;;5091379;28;20032;-80
2021/10/20 12:26:34;;;;;;;16.13;11.73;;;16.40;98.10;;;;;;5091534;28;20038;-79
2021/10/20 12:29:06;;;;;;;21.02;12.02;;;16.30;98.40;;;;;;5092539;28;20075;-77
2021/10/20 12:31:32;;;;;;;23.17;12.95;;;16.10;98.40;;;;;;5098136;28;20047;-78
2021/10/20 12:33:58;;;;;;;20.00;12.60;;;16.10;98.60;;;;;;5090646;28;20036;-78
2021/10/20 12:36:26;;;;;;;21.73;12.13;;;16.10;98.40;;;;;;5088280;28;20028;-76
2021/10/20 12:38:53;;;;;;;17.83;11.13;;;16.20;98.70;;;;;;5087636;28;20085;-78
2021/10/20 12:41:26;;;;;;;16.15;11.15;;;16.40;98.60;;;;;;5089537;28;20933;-77
2021/10/20 12:43:55;;;;;;;16.48;11.82;;;16.70;98.10;;;;;;5089446;28;20032;-79
2021/10/20 12:46:22;;;;;;;16.13;10.68;;;16.70;98.20;;;;;;5085090;28;20028;-80
2021/10/20 12:48:50;;;;;;;17.20;10.77;;;17.10;97.90;;;;;;5086854;28;20035;-80
2021/10/20 12:51:19;;;;;;;16.10;11.23;;;17.50;97.30;;;;;;5087818;28;20032;-78